Latest Weather Observations for Bickley

IDW60801

Issued at 6:05 pm WST Wednesday 1 October 2014 (issued every 30 minutes, with the page automatically refreshed every 10 minutes)

About weather observations | Map of weather stations | Latest weather observations for WA | Other Formats
Station Details ID: 009240 Name: BICKLEY Lat: -32.01 Lon: 116.14 Height: 384.0 m
Data from the previous 72 hours. | See also: Recent months at Bickley
Date/Time
WST
Temp
°C
App
Temp
°C
Dew
Point
Rel
Hum
%
Delta-T
°C
Wind Press
QNH
hPa
Press
MSL
hPa
Rain
since 9 am
mm
Dir
 
Spd
km/h
Gust
km/h
Spd
kts
Gust
kts
01/06:00pm 21.9 - 10.7 49 6.3 - - - - - - - 0.0
01/05:30pm 23.1 - 11.2 47 6.8 - - - - - - - 0.0
01/05:00pm 22.8 - 11.5 49 6.4 - - - - - - - 0.0
01/04:30pm 22.6 - 12.8 54 5.7 - - - - - - - 0.0
01/04:00pm 23.2 - 13.7 55 5.6 - - - - - - - 0.0
01/03:30pm 24.6 - 12.5 46 7.1 - - - - - - - 0.0
01/03:00pm 24.3 - 13.2 50 6.6 - - - - - - - 0.0
01/02:30pm 23.9 - 12.8 49 6.5 - - - - - - - 0.0
01/02:00pm 23.6 - 14.3 56 5.6 - - - - - - - 0.0
01/01:30pm 23.2 - 13.9 56 5.5 - - - - - - - 0.0
01/01:00pm 23.2 - 14.2 57 5.4 - - - - - - - 0.0
01/12:30pm 22.4 - 13.2 56 5.4 - - - - - - - 0.0
01/12:00pm 22.1 - 12.6 55 5.5 - - - - - - - 0.0
01/11:30am 22.0 - 13.1 57 5.2 - - - - - - - 0.0
01/11:00am 21.7 - 12.5 56 5.3 - - - - - - - 0.0
01/10:30am 21.4 - 12.8 58 5.0 - - - - - - - 0.0
01/10:00am 20.7 - 12.9 61 4.5 - - - - - - - 0.0
01/09:30am 19.0 - 11.8 63 4.0 - - - - - - - 0.0
01/09:00am 17.7 - 11.3 66 3.5 - - - - - - - 0.0
01/08:30am 16.0 - 10.7 71 2.9 - - - - - - - 0.0
01/08:00am 14.6 - 10.2 75 2.3 - - - - - - - 0.0
01/07:30am 13.2 - 10.0 81 1.7 - - - - - - - 0.0
01/07:00am 12.1 - 10.0 87 1.1 - - - - - - - 0.0
01/06:30am 11.0 - 9.6 91 0.7 - - - - - - - 0.0
01/06:00am 10.9 - 9.7 92 0.6 - - - - - - - 0.0
01/05:30am 10.9 - 9.7 92 0.6 - - - - - - - 0.0
01/05:00am 10.9 - 9.8 93 0.6 - - - - - - - 0.0
01/04:30am 11.0 - 10.1 94 0.5 - - - - - - - 0.0
01/04:00am 11.2 - 9.9 92 0.7 - - - - - - - 0.0
01/03:30am 11.6 - 9.9 89 0.9 - - - - - - - 0.0
01/03:00am 12.0 - 9.9 87 1.1 - - - - - - - 0.0
01/02:30am 12.2 - 10.1 87 1.1 - - - - - - - 0.0
01/02:00am 12.3 - 10.0 86 1.2 - - - - - - - 0.0
01/01:30am 12.5 - 9.9 84 1.4 - - - - - - - 0.0
01/01:00am 12.9 - 9.9 82 1.6 - - - - - - - 0.0
01/12:30am 13.3 - 9.9 80 1.8 - - - - - - - 0.0
01/12:00am 13.7 - 9.9 78 2.0 - - - - - - - 0.0
 
Date/Time
WST
Temp
°C
App
Temp
°C
Dew
Point
Rel
Hum
%
Delta-T
°C
Wind Press
QNH
hPa
Press
MSL
hPa
Rain
since 9 am
mm
Dir
 
Spd
km/h
Gust
km/h
Spd
kts
Gust
kts
30/11:30pm 13.8 - 10.0 78 2.0 - - - - - - - 0.0
30/11:00pm 13.8 - 10.2 79 1.9 - - - - - - - 0.0
30/10:30pm 14.0 - 10.6 80 1.8 - - - - - - - 0.0
30/10:00pm 13.9 - 10.7 81 1.7 - - - - - - - 0.0
30/09:30pm 14.2 - 10.6 79 1.9 - - - - - - - 0.0
30/09:00pm 14.5 - 10.9 79 1.9 - - - - - - - 0.0
30/08:30pm 14.8 - 11.0 78 2.1 - - - - - - - 0.0
30/08:00pm 15.3 - 10.9 75 2.4 - - - - - - - 0.0
30/07:30pm 15.2 - 11.0 76 2.3 - - - - - - - 0.0
30/07:00pm 15.4 - 10.8 74 2.5 - - - - - - - 0.0
30/06:30pm 15.8 - 10.8 72 2.7 - - - - - - - 0.0
30/06:00pm 16.7 - 11.0 69 3.1 - - - - - - - 0.0
30/05:30pm 18.4 - 11.2 63 4.0 - - - - - - - 0.0
30/05:00pm 19.6 - 11.4 59 4.6 - - - - - - - 0.0
30/04:30pm 19.8 - 10.8 56 5.0 - - - - - - - 0.0
30/04:00pm 20.4 - 11.3 56 5.1 - - - - - - - 0.0
30/03:30pm 20.3 - 10.4 53 5.5 - - - - - - - 0.0
30/03:00pm 20.1 - 11.3 57 4.9 - - - - - - - 0.0
30/02:30pm 20.2 - 11.4 57 4.9 - - - - - - - 0.0
30/02:00pm 19.9 - 11.1 57 4.9 - - - - - - - 0.0
30/01:30pm 19.1 - 9.0 52 5.4 - - - - - - - 0.0
30/01:00pm 18.7 - 10.5 59 4.5 - - - - - - - 0.0
30/12:30pm 18.3 - 11.1 63 4.0 - - - - - - - 0.0
30/12:00pm 17.6 - 10.7 64 3.8 - - - - - - - 0.0
30/11:30am 17.3 - 11.1 67 3.4 - - - - - - - 0.0
30/11:00am 16.5 - 10.4 67 3.3 - - - - - - - 0.0
30/10:30am 15.7 - 9.6 67 3.2 - - - - - - - 0.0
30/10:00am 15.7 - 11.1 74 2.5 - - - - - - - 0.0
30/09:30am 14.0 - 9.6 75 2.3 - - - - - - - 0.0
30/09:00am 13.3 - 9.2 76 2.1 - - - - - - - 0.2
30/08:30am 11.8 - 8.6 81 1.6 - - - - - - - 0.2
30/08:00am 11.6 - 9.9 89 0.9 - - - - - - - 0.2
30/07:30am 11.1 - 10.2 94 0.5 - - - - - - - 0.2
30/07:00am 10.7 - 10.1 96 0.3 - - - - - - - 0.2
30/06:30am 10.3 - 10.0 98 0.2 - - - - - - - 0.2
30/06:00am 10.1 - 9.9 99 0.1 - - - - - - - 0.2
30/05:30am 10.1 - 9.9 99 0.1 - - - - - - - 0.2
30/05:00am 9.7 - 9.6 99 0.1 - - - - - - - 0.2
30/04:30am 9.1 - 9.0 99 0.1 - - - - - - - 0.2
30/04:00am 9.4 - 9.3 99 0.1 - - - - - - - 0.2
30/03:30am 9.1 - 9.0 99 0.1 - - - - - - - 0.2
30/03:00am 9.0 - 8.9 99 0.0 - - - - - - - 0.2
30/02:30am 9.5 - 9.4 99 0.1 - - - - - - - 0.2
30/02:00am 9.4 - 9.3 99 0.1 - - - - - - - 0.2
30/01:30am 9.5 - 9.0 97 0.3 - - - - - - - 0.2
30/01:00am 9.9 - 9.1 95 0.4 - - - - - - - 0.2
30/12:30am 10.2 - 9.3 94 0.5 - - - - - - - 0.2
30/12:00am 10.0 - 9.1 94 0.5 - - - - - - - 0.2
 
Date/Time
WST
Temp
°C
App
Temp
°C
Dew
Point
Rel
Hum
%
Delta-T
°C
Wind Press
QNH
hPa
Press
MSL
hPa
Rain
since 9 am
mm
Dir
 
Spd
km/h
Gust
km/h
Spd
kts
Gust
kts
29/11:30pm 10.0 - 9.2 95 0.4 - - - - - - - 0.2
29/11:00pm 10.5 - 9.6 94 0.5 - - - - - - - 0.2
29/10:30pm 11.6 - 10.0 90 0.8 - - - - - - - 0.2
29/10:00pm 12.1 - 10.8 92 0.7 - - - - - - - 0.2
29/09:30pm 11.8 - 11.0 95 0.4 - - - - - - - 0.2
29/09:00pm 11.8 - 11.3 97 0.3 - - - - - - - 0.2
29/08:30pm 12.0 - 11.2 95 0.4 - - - - - - - 0.2
29/08:00pm 11.8 - 11.5 98 0.2 - - - - - - - 0.2
29/07:30pm 11.8 - 11.6 99 0.1 - - - - - - - 0.2
29/07:00pm 12.1 - 11.8 98 0.2 - - - - - - - 0.2
29/06:30pm 12.7 - 12.1 96 0.3 - - - - - - - 0.2
29/06:00pm 13.3 - 12.2 93 0.6 - - - - - - - 0.2
29/05:30pm 14.1 - 12.8 92 0.7 - - - - - - - 0.2
29/05:00pm 14.6 - 13.3 92 0.7 - - - - - - - 0.2
29/04:30pm 16.1 - 13.6 85 1.4 - - - - - - - 0.2
29/04:00pm 16.0 - 12.9 82 1.8 - - - - - - - 0.2
29/03:30pm 16.4 - 12.8 79 2.0 - - - - - - - 0.2
29/03:00pm 17.1 - 13.8 81 1.9 - - - - - - - 0.2
29/02:30pm 16.1 - 13.2 83 1.6 - - - - - - - 0.2
29/02:00pm 16.7 - 13.2 80 2.0 - - - - - - - 0.2
29/01:30pm 16.5 - 12.8 79 2.1 - - - - - - - 0.2
29/01:00pm 16.8 - 13.1 79 2.1 - - - - - - - 0.2
29/12:30pm 17.7 - 12.6 72 2.9 - - - - - - - 0.2
29/12:00pm 17.0 - 12.5 75 2.5 - - - - - - - 0.2
29/11:30am 15.7 - 13.7 88 1.1 - - - - - - - 0.2
29/11:00am 14.5 - 14.3 99 0.1 - - - - - - - 0.2
29/10:30am 15.1 - 14.3 95 0.5 - - - - - - - 0.0
29/10:00am 13.6 - 13.4 99 0.1 - - - - - - - 0.0
29/09:30am 13.9 - 13.4 97 0.3 - - - - - - - 0.0
29/09:00am 13.7 - 13.5 99 0.1 - - - - - - - 3.0
29/08:30am 13.0 - 13.0 100 0.0 - - - - - - - 3.0
29/08:00am 13.2 - 13.2 100 0.0 - - - - - - - 3.0
29/07:30am 12.3 - 12.3 100 0.0 - - - - - - - 3.0
29/07:00am 12.1 - 12.1 100 0.0 - - - - - - - 3.0
29/06:30am 11.9 - 11.9 100 0.0 - - - - - - - 3.0
29/06:00am 11.8 - 11.8 100 0.0 - - - - - - - 3.0
29/05:30am 11.7 - 11.7 100 0.0 - - - - - - - 3.0
29/05:00am 11.5 - 11.5 100 0.0 - - - - - - - 3.0
29/04:30am 11.6 - 11.6 100 0.0 - - - - - - - 3.0
29/04:00am 11.7 - 11.7 100 0.0 - - - - - - - 3.0
29/03:30am 11.7 - 11.7 100 0.0 - - - - - - - 2.2
29/03:00am 11.6 - 11.6 100 0.0 - - - - - - - 2.2
29/02:30am 11.7 - 11.7 100 0.0 - - - - - - - 2.2
29/02:00am 11.8 - 11.8 100 0.0 - - - - - - - 2.0
29/01:30am 11.8 - 11.8 100 0.0 - - - - - - - 1.8
29/01:00am 11.8 - 11.8 100 0.0 - - - - - - - 1.8
29/12:30am 11.9 - 11.9 100 0.0 - - - - - - - 1.8
29/12:00am 11.9 - 11.9 100 0.0 - - - - - - - 1.8
 
Date/Time
WST
Temp
°C
App
Temp
°C
Dew
Point
Rel
Hum
%
Delta-T
°C
Wind Press
QNH
hPa
Press
MSL
hPa
Rain
since 9 am
mm
Dir
 
Spd
km/h
Gust
km/h
Spd
kts
Gust
kts
28/11:30pm 12.0 - 12.0 100 0.0 - - - - - - - 1.8
28/11:00pm 11.9 - 11.7 99 0.1 - - - - - - - 1.6
28/10:30pm 11.8 - 11.6 99 0.1 - - - - - - - 1.6
28/10:00pm 11.8 - 11.6 99 0.1 - - - - - - - 1.6
28/09:30pm 11.8 - 11.6 99 0.1 - - - - - - - 1.6
28/09:00pm 11.8 - 11.6 99 0.1 - - - - - - - 1.6
28/08:30pm 12.0 - 11.5 97 0.3 - - - - - - - 1.6
28/08:00pm 12.2 - 11.6 96 0.3 - - - - - - - 1.6
28/07:30pm 12.2 - 11.3 94 0.5 - - - - - - - 1.6
28/07:00pm 12.5 - 11.4 93 0.6 - - - - - - - 1.6
28/06:30pm 12.8 - 11.9 94 0.5 - - - - - - - 1.6

Other Formats:

Comma delimited format used in spreadsheet applications
http://www.bom.gov.au/fwo/IDW60801/IDW60801.95610.axf

JavaScript Object Notation format (JSON) in row-major order
http://www.bom.gov.au/fwo/IDW60801/IDW60801.95610.json